Time;durP1;ratioP1;P1;durP2;ratioP2;P2;SDS_P1;SDS_P2;PMS_P1;PMS_P2;Temp;Humidity;BMP_temperature;BMP_pressure;BME280_temperature;BME280_humidity;BME280_pressure;Samples;Min_cycle;Max_cycle;Signal;HPM_P1;HPM_P2
2022/08/13 00:00:10;;;;;;;4.68;4.22;;;19.20;99.90;;;;;;4991920;28;20457;-84
2022/08/13 00:02:38;;;;;;;4.88;4.43;;;19.10;99.90;;;;;;4995650;28;20065;-84
2022/08/13 00:05:05;;;;;;;5.07;4.32;;;19.10;99.90;;;;;;4987339;28;20052;-84
2022/08/13 00:07:32;;;;;;;5.75;4.20;;;19.00;99.90;;;;;;4991752;28;20080;-84
2022/08/13 00:09:59;;;;;;;5.18;4.65;;;19.00;99.90;;;;;;4992877;28;20046;-84
2022/08/13 00:15:20;;;;;;;6.45;5.75;;;18.90;99.90;;;;;;5007314;28;20045;-84
2022/08/13 00:17:49;;;;;;;7.03;6.30;;;18.80;99.90;;;;;;5007657;28;20064;-84
2022/08/13 00:20:17;;;;;;;5.72;5.22;;;18.70;99.90;;;;;;4987779;28;20037;-84
2022/08/13 00:22:43;;;;;;;9.40;6.05;;;18.70;99.90;;;;;;4993090;28;20038;-84
2022/08/13 00:25:10;;;;;;;7.72;6.50;;;18.70;99.90;;;;;;4994579;28;20041;-84
2022/08/13 00:27:36;;;;;;;8.40;7.60;;;18.70;99.90;;;;;;5005001;28;20038;-84
2022/08/13 00:30:05;;;;;;;8.93;6.82;;;18.60;99.90;;;;;;4993843;28;20124;-84
2022/08/13 00:32:32;;;;;;;7.60;6.80;;;18.60;99.90;;;;;;4997244;28;20515;-84
2022/08/13 00:34:59;;;;;;;6.65;5.93;;;18.50;99.90;;;;;;4999688;28;20044;-84
2022/08/13 00:37:26;;;;;;;6.63;6.03;;;18.50;99.90;;;;;;4995758;28;20081;-84
2022/08/13 00:39:56;;;;;;;5.72;5.13;;;18.50;99.90;;;;;;4990693;28;20121;-84
2022/08/13 00:42:25;;;;;;;6.18;5.40;;;18.40;99.90;;;;;;5012166;28;20389;-84
2022/08/13 00:44:50;;;;;;;6.22;5.68;;;18.30;99.90;;;;;;4994188;28;20045;-84
2022/08/13 00:50:03;;;;;;;6.78;6.25;;;18.20;99.90;;;;;;5007841;28;20050;-84
2022/08/13 00:52:30;;;;;;;8.38;7.30;;;18.20;99.90;;;;;;4983288;28;20052;-84
2022/08/13 00:55:07;;;;;;;8.85;6.40;;;18.10;99.90;;;;;;4996065;28;20143;-84
2022/08/13 00:57:34;;;;;;;6.55;6.05;;;18.10;99.90;;;;;;4991614;28;20092;-84
2022/08/13 01:00:12;;;;;;;6.80;5.30;;;18.10;99.90;;;;;;4993785;28;20037;-84
2022/08/13 01:02:43;;;;;;;5.90;4.57;;;18.10;99.90;;;;;;4989504;28;20117;-84
2022/08/13 01:05:09;;;;;;;7.40;5.20;;;18.00;99.90;;;;;;4991188;28;20084;-84
2022/08/13 01:07:41;;;;;;;5.55;5.05;;;18.00;99.90;;;;;;4993735;28;20170;-84
2022/08/13 01:10:09;;;;;;;6.65;5.53;;;18.00;99.90;;;;;;4993629;28;20056;-84
2022/08/13 01:12:37;;;;;;;5.90;5.40;;;18.00;99.90;;;;;;4999244;28;20041;-84
2022/08/13 01:15:06;;;;;;;6.57;5.88;;;17.90;99.90;;;;;;4987914;28;20169;-84
2022/08/13 01:17:32;;;;;;;6.20;5.47;;;17.90;99.90;;;;;;5009440;28;20052;-84
2022/08/13 01:19:58;;;;;;;6.18;5.38;;;17.90;99.90;;;;;;4990887;28;20077;-84
2022/08/13 01:22:25;;;;;;;8.18;5.80;;;17.90;99.90;;;;;;4986225;28;20053;-84
2022/08/13 01:24:52;;;;;;;6.20;5.18;;;17.80;99.90;;;;;;5008128;28;20674;-84
2022/08/13 01:27:22;;;;;;;5.75;5.05;;;17.80;99.90;;;;;;4989011;28;20121;-84
2022/08/13 01:29:51;;;;;;;6.30;5.78;;;17.80;99.90;;;;;;4993231;28;20107;-84
2022/08/13 01:32:19;;;;;;;6.13;5.13;;;17.70;99.90;;;;;;4991160;28;20488;-84
2022/08/13 01:34:47;;;;;;;5.40;4.90;;;17.70;99.90;;;;;;4992576;28;20120;-84
2022/08/13 01:37:15;;;;;;;4.93;4.53;;;17.70;99.90;;;;;;4988693;28;20103;-84
2022/08/13 01:39:42;;;;;;;5.55;5.05;;;17.60;99.90;;;;;;4996194;28;20091;-84
2022/08/13 01:42:20;;;;;;;5.82;5.30;;;17.60;99.90;;;;;;4993537;28;20116;-84
2022/08/13 01:44:51;;;;;;;7.72;6.47;;;17.60;99.90;;;;;;4996739;28;20095;-84
2022/08/13 01:52:50;;;;;;;10.02;7.70;;;17.50;99.90;;;;;;5022806;28;20481;-84
2022/08/13 01:55:17;;;;;;;6.65;6.05;;;17.40;99.90;;;;;;4994566;28;20511;-84
2022/08/13 01:57:44;;;;;;;6.30;5.53;;;17.40;99.90;;;;;;4999547;28;20255;-84
2022/08/13 02:00:15;;;;;;;6.78;6.03;;;17.40;99.90;;;;;;4994288;28;20037;-84
2022/08/13 02:02:48;;;;;;;6.05;5.45;;;17.30;99.90;;;;;;5011065;28;20047;-84
2022/08/13 02:05:14;;;;;;;5.23;4.83;;;17.30;99.90;;;;;;4994105;28;20038;-83
2022/08/13 02:07:46;;;;;;;5.85;5.30;;;17.30;99.90;;;;;;4996456;28;20283;-84
2022/08/13 02:10:19;;;;;;;5.97;5.00;;;17.20;99.90;;;;;;4988730;28;20057;-84
2022/08/13 02:12:49;;;;;;;6.20;4.40;;;17.20;99.90;;;;;;5014927;28;20561;-84
2022/08/13 02:15:17;;;;;;;5.30;4.80;;;17.20;99.90;;;;;;4999089;28;20041;-86
2022/08/13 02:17:45;;;;;;;6.10;4.45;;;17.10;99.90;;;;;;5010909;28;20052;-84
2022/08/13 02:20:18;;;;;;;5.32;4.38;;;17.00;99.90;;;;;;4989276;28;20411;-85
2022/08/13 02:22:51;;;;;;;5.25;4.00;;;17.00;99.90;;;;;;5029267;28;20056;-84
2022/08/13 02:25:24;;;;;;;6.75;4.32;;;17.00;99.90;;;;;;4995497;28;20431;-84
2022/08/13 02:27:54;;;;;;;4.78;3.95;;;17.00;99.90;;;;;;5013565;28;20064;-84
2022/08/13 02:30:27;;;;;;;4.28;3.97;;;17.00;99.90;;;;;;4994820;28;20037;-85
2022/08/13 02:33:04;;;;;;;7.45;4.20;;;17.00;99.90;;;;;;4998630;28;20083;-84
2022/08/13 02:35:37;;;;;;;5.07;4.07;;;16.90;99.90;;;;;;4991085;28;20037;-84
2022/08/13 02:38:16;;;;;;;4.10;3.80;;;16.90;99.90;;;;;;4992662;28;20543;-85
2022/08/13 02:43:33;;;;;;;4.32;4.00;;;16.90;99.90;;;;;;5014453;28;20171;-84
2022/08/13 02:46:03;;;;;;;5.53;4.20;;;16.90;99.90;;;;;;4987752;28;20076;-84
2022/08/13 02:48:29;;;;;;;5.05;3.97;;;16.90;99.90;;;;;;5003420;28;20049;-85
2022/08/13 02:50:56;;;;;;;4.95;4.00;;;16.90;99.90;;;;;;4988303;28;20052;-84
2022/08/13 02:53:25;;;;;;;4.40;3.90;;;16.80;99.90;;;;;;4996105;28;20515;-84
2022/08/13 02:55:51;;;;;;;3.90;3.50;;;16.80;99.90;;;;;;4989351;28;20050;-85
2022/08/13 02:58:18;;;;;;;4.13;3.42;;;16.80;99.90;;;;;;4996374;28;20045;-84
2022/08/13 03:00:49;;;;;;;5.03;3.85;;;16.80;99.90;;;;;;4988567;28;20045;-84
2022/08/13 03:03:17;;;;;;;6.80;4.00;;;16.80;99.90;;;;;;4990846;28;20411;-84
2022/08/13 03:05:43;;;;;;;4.60;4.22;;;16.70;99.90;;;;;;4996479;28;20049;-85
2022/08/13 03:08:11;;;;;;;4.18;3.78;;;16.70;99.90;;;;;;4995274;28;20508;-85
2022/08/13 03:10:41;;;;;;;4.20;3.80;;;16.70;99.90;;;;;;4993786;28;20065;-84
2022/08/13 03:13:23;;;;;;;4.45;4.05;;;16.70;99.90;;;;;;4991084;28;20120;-85
2022/08/13 03:15:55;;;;;;;4.72;3.75;;;16.60;99.90;;;;;;4991092;28;20080;-84
2022/08/13 03:18:22;;;;;;;4.05;3.58;;;16.60;99.90;;;;;;4984990;28;20488;-84
2022/08/13 03:20:49;;;;;;;5.28;4.05;;;16.60;99.90;;;;;;5007971;28;20032;-85
2022/08/13 03:23:15;;;;;;;4.40;4.00;;;16.50;99.90;;;;;;4997776;28;20048;-85
2022/08/13 03:25:41;;;;;;;5.10;3.88;;;16.50;99.90;;;;;;5009194;28;20049;-84
2022/08/13 03:28:07;;;;;;;5.53;4.05;;;16.50;99.90;;;;;;5012659;28;20120;-84
2022/08/13 03:30:34;;;;;;;4.75;4.25;;;16.40;99.90;;;;;;4995335;28;20411;-84
2022/08/13 03:33:08;;;;;;;4.88;3.88;;;16.40;99.90;;;;;;4994440;28;20058;-84
2022/08/13 03:35:36;;;;;;;4.82;4.15;;;16.40;99.90;;;;;;4993189;28;20049;-84
2022/08/13 03:38:02;;;;;;;4.97;3.70;;;16.30;99.90;;;;;;4990385;28;20069;-84
2022/08/13 03:43:13;;;;;;;3.67;3.38;;;16.20;99.90;;;;;;5028146;28;20034;-84
2022/08/13 03:45:38;;;;;;;5.68;3.90;;;16.20;99.90;;;;;;5006090;28;20076;-84
2022/08/13 03:48:04;;;;;;;4.20;3.80;;;16.20;99.90;;;;;;4998190;28;20053;-84
2022/08/13 03:50:30;;;;;;;5.25;3.55;;;16.20;99.90;;;;;;5004467;28;20050;-84
2022/08/13 03:53:06;;;;;;;5.22;3.70;;;16.10;99.90;;;;;;4990337;28;20076;-84
2022/08/13 03:55:33;;;;;;;3.75;3.45;;;16.10;99.90;;;;;;5008497;28;20037;-84
2022/08/13 03:58:00;;;;;;;4.15;3.63;;;16.10;99.90;;;;;;4995669;28;20033;-84
2022/08/13 04:00:28;;;;;;;4.68;4.18;;;16.10;99.90;;;;;;5011643;28;20121;-84
2022/08/13 04:02:59;;;;;;;4.82;4.05;;;16.00;99.90;;;;;;4983738;28;20042;-85
2022/08/13 04:05:26;;;;;;;5.68;4.10;;;16.00;99.90;;;;;;4990745;28;20046;-85
2022/08/13 04:07:52;;;;;;;6.07;3.83;;;15.90;99.90;;;;;;4993831;28;20041;-84
2022/08/13 04:10:19;;;;;;;4.90;4.30;;;15.90;99.90;;;;;;5022181;28;21468;-85
2022/08/13 04:12:45;;;;;;;5.55;3.92;;;15.90;99.90;;;;;;5005558;28;20415;-85
2022/08/13 04:15:11;;;;;;;5.90;4.00;;;15.90;99.90;;;;;;4985964;28;20037;-85
2022/08/13 04:17:38;;;;;;;4.07;3.67;;;15.90;99.90;;;;;;4989544;28;20578;-80
2022/08/13 04:20:05;;;;;;;4.70;4.30;;;15.80;99.90;;;;;;4995969;28;20453;-79
2022/08/13 04:22:32;;;;;;;4.55;4.15;;;15.80;99.90;;;;;;4985405;28;20046;-81
2022/08/13 04:24:58;;;;;;;4.60;4.03;;;15.80;99.90;;;;;;4999331;28;20037;-80
2022/08/13 04:27:25;;;;;;;5.13;4.20;;;15.80;99.90;;;;;;4983942;28;20232;-80
2022/08/13 04:29:51;;;;;;;4.22;3.83;;;15.80;99.90;;;;;;5009640;28;20091;-80
2022/08/13 04:32:22;;;;;;;4.53;4.13;;;15.80;99.90;;;;;;4989789;28;20041;-81
2022/08/13 04:34:48;;;;;;;4.10;3.70;;;15.70;99.90;;;;;;4990095;28;20063;-81
2022/08/13 04:37:20;;;;;;;4.93;4.30;;;15.70;99.90;;;;;;5006352;28;20520;-80
2022/08/13 04:39:46;;;;;;;5.63;4.20;;;15.70;99.90;;;;;;4992290;28;20042;-81
2022/08/13 04:42:11;;;;;;;4.32;3.92;;;15.70;99.90;;;;;;5013183;28;20033;-81
2022/08/13 04:44:38;;;;;;;4.40;4.00;;;15.70;99.90;;;;;;4997708;28;20037;-81
2022/08/13 04:47:06;;;;;;;5.00;4.53;;;15.70;99.90;;;;;;4988158;28;20053;-81
2022/08/13 04:49:31;;;;;;;5.55;4.53;;;15.80;99.90;;;;;;4988528;28;20042;-82
2022/08/13 04:51:57;;;;;;;5.32;4.00;;;15.80;99.90;;;;;;4997254;28;20411;-82
2022/08/13 04:54:23;;;;;;;5.55;4.10;;;15.70;99.90;;;;;;5011911;28;20048;-81
2022/08/13 04:56:49;;;;;;;5.28;3.90;;;15.80;99.90;;;;;;4993804;28;20045;-81
2022/08/13 04:59:22;;;;;;;5.07;4.32;;;15.80;99.90;;;;;;4991707;28;20060;-81
2022/08/13 05:01:50;;;;;;;5.07;3.60;;;15.80;99.90;;;;;;5012271;28;20061;-81
2022/08/13 05:04:22;;;;;;;4.43;4.00;;;15.90;99.90;;;;;;4994224;28;20050;-81
2022/08/13 05:06:50;;;;;;;4.20;3.80;;;15.90;99.90;;;;;;4995852;28;20041;-81
2022/08/13 05:09:22;;;;;;;3.97;3.67;;;15.90;99.90;;;;;;4991492;28;20049;-81
2022/08/13 05:11:49;;;;;;;4.22;3.22;;;16.00;99.90;;;;;;4991121;28;20423;-81
2022/08/13 05:14:24;;;;;;;4.53;3.83;;;16.00;99.90;;;;;;4999023;28;20041;-81
2022/08/13 05:16:51;;;;;;;5.05;3.90;;;16.00;99.90;;;;;;5001423;28;20435;-81
2022/08/13 05:19:32;;;;;;;3.92;3.53;;;16.10;99.90;;;;;;4996057;28;20033;-82
2022/08/13 05:21:59;;;;;;;3.97;3.67;;;16.10;99.90;;;;;;4995967;28;20056;-81
2022/08/13 05:24:25;;;;;;;3.50;3.30;;;16.20;99.90;;;;;;4993300;28;20048;-81
2022/08/13 05:26:52;;;;;;;5.95;4.13;;;16.20;99.90;;;;;;4988900;28;20046;-82
2022/08/13 05:29:20;;;;;;;5.20;3.58;;;16.30;99.90;;;;;;4991990;28;20045;-83
2022/08/13 05:31:51;;;;;;;4.78;4.10;;;16.30;99.90;;;;;;4996406;28;20124;-81
2022/08/13 05:34:16;;;;;;;4.47;3.70;;;16.30;99.90;;;;;;4987240;28;20041;-81
2022/08/13 05:36:43;;;;;;;4.05;3.75;;;16.40;99.90;;;;;;4991632;28;20099;-82
2022/08/13 05:39:11;;;;;;;5.85;3.50;;;16.40;99.90;;;;;;4983065;28;20038;-82
2022/08/13 05:41:36;;;;;;;4.00;3.42;;;16.50;99.90;;;;;;4990984;28;20041;-81
2022/08/13 05:44:02;;;;;;;5.35;3.28;;;16.50;99.90;;;;;;4989918;28;20034;-81
2022/08/13 05:46:30;;;;;;;3.95;3.38;;;16.60;99.90;;;;;;4996669;28;20492;-82
2022/08/13 05:48:58;;;;;;;5.72;3.75;;;16.60;99.90;;;;;;4994282;28;20051;-81
2022/08/13 05:51:35;;;;;;;3.92;3.53;;;16.70;99.90;;;;;;5008480;28;20049;-81
2022/08/13 05:54:03;;;;;;;3.70;3.40;;;16.70;99.90;;;;;;4995134;28;20516;-81
2022/08/13 05:56:35;;;;;;;4.57;3.40;;;16.80;99.90;;;;;;4990395;28;20065;-81
2022/08/13 05:59:03;;;;;;;5.20;3.40;;;16.90;99.90;;;;;;4989077;28;20573;-82
2022/08/13 06:04:19;;;;;;;5.07;3.67;;;17.00;99.90;;;;;;5029317;28;20671;-81
2022/08/13 06:06:46;;;;;;;3.72;3.28;;;17.10;99.90;;;;;;4993394;28;20038;-81
2022/08/13 06:09:13;;;;;;;5.07;3.60;;;17.20;99.90;;;;;;4988282;28;20046;-82
2022/08/13 06:11:42;;;;;;;4.00;3.70;;;17.30;99.90;;;;;;5001583;28;20042;-81
2022/08/13 06:14:08;;;;;;;3.53;3.22;;;17.40;99.90;;;;;;5011182;28;20065;-81
2022/08/13 06:16:37;;;;;;;5.43;3.33;;;17.40;99.90;;;;;;5027760;28;20037;-80
2022/08/13 06:19:03;;;;;;;4.40;4.00;;;17.50;99.90;;;;;;5012637;28;20071;-80
2022/08/13 06:21:32;;;;;;;4.05;3.65;;;17.50;99.90;;;;;;4994127;28;20052;-81
2022/08/13 06:23:58;;;;;;;3.78;3.47;;;17.60;99.90;;;;;;5002574;28;20049;-81
2022/08/13 06:26:27;;;;;;;3.95;3.22;;;17.60;99.90;;;;;;4994077;28;20041;-81
2022/08/13 06:28:53;;;;;;;3.90;3.60;;;17.70;99.90;;;;;;4990866;28;20578;-81
2022/08/13 06:31:28;;;;;;;4.90;3.53;;;17.80;99.90;;;;;;4996251;28;20045;-81
2022/08/13 06:33:56;;;;;;;5.03;3.55;;;17.80;99.90;;;;;;5010333;28;20742;-81
2022/08/13 06:36:29;;;;;;;3.75;3.40;;;17.90;99.90;;;;;;4992826;28;20041;-81
2022/08/13 06:39:00;;;;;;;4.55;3.33;;;18.00;99.90;;;;;;4993579;28;20551;-81
2022/08/13 06:41:29;;;;;;;5.82;3.60;;;18.10;99.90;;;;;;4992753;28;20164;-81
2022/08/13 06:43:56;;;;;;;4.07;3.67;;;18.30;99.90;;;;;;4991455;28;20049;-82
2022/08/13 06:46:25;;;;;;;3.50;3.30;;;18.40;99.90;;;;;;4994328;28;20109;-82
2022/08/13 06:48:55;;;;;;;4.55;3.38;;;18.50;99.90;;;;;;4994384;28;20041;-81
2022/08/13 06:51:23;;;;;;;5.03;3.47;;;18.70;99.90;;;;;;4990604;28;20046;-81
2022/08/13 06:53:49;;;;;;;3.65;3.15;;;18.80;99.90;;;;;;5012741;28;20037;-81
2022/08/13 06:56:22;;;;;;;4.22;3.00;;;19.00;99.90;;;;;;4998593;28;20188;-82
2022/08/13 06:58:50;;;;;;;3.70;3.30;;;19.20;99.90;;;;;;4997683;28;20037;-82
2022/08/13 07:01:22;;;;;;;3.17;2.80;;;19.20;99.90;;;;;;5014301;28;20056;-82
2022/08/13 07:03:49;;;;;;;3.03;2.80;;;19.40;99.90;;;;;;4997180;28;20053;-82
2022/08/13 07:06:17;;;;;;;3.10;2.90;;;19.50;99.90;;;;;;4998557;28;20071;-82
2022/08/13 07:08:44;;;;;;;3.28;2.97;;;19.70;99.60;;;;;;4989285;28;20046;-82
2022/08/13 07:11:24;;;;;;;4.43;3.03;;;19.80;98.80;;;;;;4994786;28;20052;-82
2022/08/13 07:13:54;;;;;;;4.72;2.72;;;20.00;97.80;;;;;;4994639;28;20045;-82
2022/08/13 07:16:24;;;;;;;3.75;2.67;;;20.20;96.50;;;;;;4995578;28;20084;-81
2022/08/13 07:18:51;;;;;;;2.83;2.63;;;20.30;95.30;;;;;;4993133;28;20045;-83
2022/08/13 07:21:24;;;;;;;6.75;2.97;;;20.50;94.20;;;;;;5004172;28;20042;-86
2022/08/13 07:23:51;;;;;;;6.13;2.95;;;20.70;93.60;;;;;;4983115;28;20053;-87
2022/08/13 07:26:18;;;;;;;5.43;2.67;;;20.80;92.20;;;;;;4992798;28;20071;-87
2022/08/13 07:28:46;;;;;;;5.38;2.47;;;21.00;91.30;;;;;;5003702;28;20608;-88
2022/08/13 07:31:16;;;;;;;3.35;2.70;;;21.30;89.40;;;;;;4994103;28;20041;-88
2022/08/13 07:33:51;;;;;;;3.60;2.95;;;21.50;88.20;;;;;;5010506;28;20167;-88
2022/08/13 07:36:19;;;;;;;2.60;2.40;;;21.70;85.10;;;;;;4992615;28;20121;-88
2022/08/13 07:38:46;;;;;;;4.10;2.30;;;22.00;84.30;;;;;;4991643;28;20128;-87
2022/08/13 07:41:15;;;;;;;3.85;2.72;;;22.30;81.40;;;;;;4993847;28;20061;-87
2022/08/13 07:43:44;;;;;;;2.95;2.63;;;22.50;78.00;;;;;;4994925;28;20479;-88
2022/08/13 07:46:17;;;;;;;2.60;2.40;;;22.80;76.60;;;;;;5008977;28;20045;-87
2022/08/13 07:48:51;;;;;;;3.00;2.30;;;23.10;72.40;;;;;;4989641;28;20443;-88
2022/08/13 07:51:20;;;;;;;5.30;2.63;;;23.40;72.40;;;;;;4992292;28;20034;-89
2022/08/13 07:53:54;;;;;;;3.08;2.38;;;23.70;70.90;;;;;;4996456;28;20052;-89
2022/08/13 07:56:28;;;;;;;2.33;2.13;;;23.90;70.00;;;;;;4990430;28;20056;-89
2022/08/13 07:59:02;;;;;;;3.05;2.40;;;24.20;69.20;;;;;;4992981;28;20041;-89
2022/08/13 08:01:49;;;;;;;2.22;2.05;;;24.40;67.20;;;;;;5002200;28;20076;-89
2022/08/13 08:04:16;;;;;;;2.55;2.30;;;24.60;66.70;;;;;;4990098;28;20045;-89
2022/08/13 08:06:48;;;;;;;2.38;2.17;;;24.90;65.60;;;;;;4994399;28;20615;-88
2022/08/13 08:09:35;;;;;;;2.85;2.10;;;25.10;65.50;;;;;;4989190;28;20046;-89
2022/08/13 08:14:50;;;;;;;2.85;2.20;;;25.60;62.60;;;;;;5027497;28;20052;-88
2022/08/13 08:17:18;;;;;;;7.53;2.35;;;25.80;62.90;;;;;;4995791;28;20049;-89
2022/08/13 08:19:50;;;;;;;2.28;1.85;;;26.00;60.70;;;;;;4989531;28;20048;-89
2022/08/13 08:22:17;;;;;;;3.33;2.40;;;26.30;59.50;;;;;;4990717;28;20100;-89
2022/08/13 08:24:49;;;;;;;2.42;2.22;;;26.50;59.70;;;;;;4996425;28;20300;-86
2022/08/13 08:27:19;;;;;;;2.30;2.20;;;26.60;58.70;;;;;;4994976;28;20513;-89
2022/08/13 08:29:46;;;;;;;3.22;2.22;;;26.80;58.40;;;;;;4995620;28;20132;-89
2022/08/13 08:32:16;;;;;;;2.58;2.38;;;27.00;56.10;;;;;;4994934;28;20497;-89
2022/08/13 08:34:50;;;;;;;3.00;2.13;;;27.20;56.60;;;;;;4995451;28;20054;-89
2022/08/13 08:43:00;;;;;;;3.50;2.17;;;27.70;52.90;;;;;;5017492;28;20097;-89
2022/08/13 08:45:26;;;;;;;;;;;28.00;54.10;;;;;;4998954;28;20053;-88
2022/08/13 08:47:52;;;;;;;2.10;1.90;;;28.20;53.30;;;;;;4997531;28;20455;-88
2022/08/13 08:50:24;;;;;;;3.42;2.22;;;28.40;54.10;;;;;;4998730;28;20128;-89
2022/08/13 08:55:50;;;;;;;2.22;1.98;;;28.80;51.50;;;;;;5015340;28;20056;-89
2022/08/13 08:58:23;;;;;;;2.53;2.08;;;29.00;51.30;;;;;;4999566;28;20155;-88
2022/08/13 09:00:53;;;;;;;;;;;29.10;51.60;;;;;;5000294;28;20042;-88
2022/08/13 09:03:21;;;;;;;2.00;1.90;;;29.40;50.80;;;;;;5003332;28;19917;-89
2022/08/13 09:05:47;;;;;;;2.13;1.95;;;29.50;51.60;;;;;;5013462;28;20046;-89
2022/08/13 09:08:18;;;;;;;3.05;1.90;;;29.70;50.20;;;;;;5000466;28;20033;-89
2022/08/13 09:10:48;;;;;;;2.17;1.90;;;29.90;49.80;;;;;;5015133;28;20052;-85
2022/08/13 09:13:25;;;;;;;2.15;2.00;;;29.90;49.30;;;;;;4999980;28;20037;-87
2022/08/13 09:15:51;;;;;;;3.35;1.90;;;30.20;49.90;;;;;;5011005;28;20123;-87
2022/08/13 09:18:21;;;;;;;2.63;2.00;;;30.50;49.10;;;;;;4995868;28;20037;-91
2022/08/13 09:20:51;;;;;;;2.85;2.00;;;30.80;47.40;;;;;;4993036;28;20658;-88
2022/08/13 09:23:21;;;;;;;4.00;2.10;;;30.90;47.30;;;;;;5015019;28;20033;-88
2022/08/13 09:25:51;;;;;;;3.30;2.40;;;31.30;46.80;;;;;;5000300;28;20499;-88
2022/08/13 09:28:26;;;;;;;2.10;1.90;;;31.20;45.10;;;;;;5002916;28;20101;-88
2022/08/13 09:30:55;;;;;;;3.65;2.00;;;31.20;43.20;;;;;;5014483;28;20056;-88
2022/08/13 09:33:23;;;;;;;2.63;2.00;;;31.40;44.90;;;;;;5018146;28;20045;-88
2022/08/13 09:35:51;;;;;;;5.82;2.05;;;31.50;44.60;;;;;;4995116;28;20061;-87
2022/08/13 09:38:21;;;;;;;1.90;1.80;;;31.70;44.30;;;;;;4998802;28;20041;-88
2022/08/13 09:40:54;;;;;;;2.13;1.83;;;31.80;43.90;;;;;;5001210;28;20060;-87
2022/08/13 09:43:35;;;;;;;3.10;1.75;;;32.00;41.60;;;;;;4995747;28;20046;-86
2022/08/13 09:46:04;;;;;;;2.55;1.85;;;32.10;43.20;;;;;;5003595;28;20103;-88
2022/08/13 09:48:33;;;;;;;3.30;1.85;;;32.20;42.90;;;;;;4994197;28;20056;-88
2022/08/13 09:51:02;;;;;;;3.53;2.08;;;32.30;41.30;;;;;;4993177;28;20159;-89
2022/08/13 09:53:32;;;;;;;3.20;2.03;;;32.30;41.50;;;;;;4988299;28;20049;-88
2022/08/13 09:56:00;;;;;;;3.60;1.75;;;32.30;39.50;;;;;;4988213;28;20197;-87
2022/08/13 09:58:29;;;;;;;2.05;1.85;;;32.10;39.70;;;;;;4989614;28;20064;-88
2022/08/13 10:00:55;;;;;;;1.85;1.75;;;32.20;40.90;;;;;;4990129;28;20037;-87
2022/08/13 10:03:21;;;;;;;3.67;1.88;;;32.40;41.60;;;;;;4996718;28;20191;-88
2022/08/13 10:05:47;;;;;;;3.08;1.80;;;32.70;42.00;;;;;;5008870;28;20536;-88
2022/08/13 10:08:16;;;;;;;4.13;1.77;;;33.10;42.20;;;;;;4996449;28;20560;-89
2022/08/13 10:10:44;;;;;;;2.55;1.92;;;33.40;42.20;;;;;;4998935;28;20048;-87
2022/08/13 10:13:11;;;;;;;1.75;1.65;;;33.40;39.10;;;;;;4999877;28;20038;-88
2022/08/13 10:15:39;;;;;;;1.60;1.50;;;33.50;38.40;;;;;;5000620;28;20038;-84
2022/08/13 10:18:05;;;;;;;2.78;1.60;;;33.50;37.80;;;;;;4998843;28;20045;-88
2022/08/13 10:20:36;;;;;;;2.38;1.60;;;33.30;38.30;;;;;;4998438;28;20127;-88
2022/08/13 10:23:15;;;;;;;;;;;;;;;;;;;;;
2022/08/13 10:25:52;;;;;;;1.90;1.80;;;33.60;37.40;;;;;;5015428;28;20048;-86
2022/08/13 10:28:23;;;;;;;3.15;1.60;;;33.60;37.20;;;;;;4986774;28;20508;-89
2022/08/13 10:30:54;;;;;;;2.60;1.58;;;33.80;37.80;;;;;;4998350;28;20050;-89
2022/08/13 10:33:25;;;;;;;2.42;1.90;;;33.90;36.50;;;;;;4991802;28;20045;-88
2022/08/13 10:35:55;;;;;;;3.10;1.60;;;33.50;37.40;;;;;;5002530;28;20076;-86
2022/08/13 10:38:29;;;;;;;1.88;1.77;;;33.60;38.30;;;;;;4995569;28;20045;-87
2022/08/13 10:41:07;;;;;;;2.20;1.67;;;33.70;38.40;;;;;;4998151;28;20103;-87
2022/08/13 10:43:38;;;;;;;3.75;1.80;;;34.10;37.60;;;;;;4994912;28;20053;-88
2022/08/13 10:46:16;;;;;;;1.80;1.70;;;34.40;38.00;;;;;;5005472;28;20513;-87
2022/08/13 10:48:44;;;;;;;2.42;1.70;;;34.60;38.70;;;;;;4997678;28;20029;-88
2022/08/13 10:51:11;;;;;;;2.33;1.80;;;34.70;37.80;;;;;;4994691;28;20050;-87
2022/08/13 10:53:58;;;;;;;1.83;1.70;;;34.90;37.70;;;;;;4996392;28;20120;-87
2022/08/13 10:56:30;;;;;;;2.13;1.75;;;34.80;35.50;;;;;;4999469;28;20092;-88
2022/08/13 10:59:03;;;;;;;1.50;1.40;;;34.90;35.10;;;;;;4992246;28;20574;-89
2022/08/13 11:01:35;;;;;;;1.60;1.50;;;35.20;36.40;;;;;;5011234;28;20041;-89
2022/08/13 11:04:01;;;;;;;;;;;35.00;35.00;;;;;;5009428;28;20408;-89
2022/08/13 11:06:29;;;;;;;3.63;1.80;;;35.20;33.00;;;;;;4998011;28;19921;-86
2022/08/13 11:08:59;;;;;;;1.73;1.63;;;34.70;34.70;;;;;;5000036;28;20103;-86
2022/08/13 11:11:26;;;;;;;3.15;1.83;;;35.10;35.30;;;;;;4999483;28;20042;-85
2022/08/13 11:13:52;;;;;;;3.53;1.60;;;35.30;36.20;;;;;;5015428;28;20385;-86
2022/08/13 11:19:05;;;;;;;3.13;1.40;;;35.80;34.40;;;;;;5031370;28;20056;-86
2022/08/13 11:21:31;;;;;;;2.38;1.52;;;36.00;32.70;;;;;;4998985;28;20447;-88
2022/08/13 11:23:57;;;;;;;3.05;1.60;;;35.70;32.70;;;;;;4997148;28;20038;-86
2022/08/13 11:26:22;;;;;;;2.45;1.33;;;35.60;33.40;;;;;;5000828;28;20129;-85
2022/08/13 11:28:51;;;;;;;2.35;1.60;;;35.80;34.40;;;;;;5013974;28;20037;-86
2022/08/13 11:31:17;;;;;;;1.60;1.50;;;35.90;34.80;;;;;;4998934;28;20116;-86
2022/08/13 11:33:43;;;;;;;2.03;1.67;;;36.00;34.00;;;;;;4996531;28;20038;-86
2022/08/13 11:36:11;;;;;;;2.70;1.45;;;35.70;32.70;;;;;;4997044;28;20365;-86
2022/08/13 11:38:37;;;;;;;2.40;1.50;;;35.90;32.90;;;;;;5009531;28;20049;-85
2022/08/13 11:41:03;;;;;;;1.58;1.48;;;36.20;33.80;;;;;;5011603;28;20111;-84
2022/08/13 11:43:33;;;;;;;2.53;1.50;;;36.40;33.30;;;;;;5009150;28;20684;-86
2022/08/13 11:46:00;;;;;;;2.97;1.38;;;36.70;34.10;;;;;;5011581;28;20060;-86
2022/08/13 11:48:26;;;;;;;2.13;1.80;;;36.80;31.70;;;;;;4996253;28;20037;-85
2022/08/13 11:50:55;;;;;;;1.67;1.58;;;36.90;32.60;;;;;;4990085;28;20049;-86
2022/08/13 11:53:22;;;;;;;3.35;1.60;;;37.00;32.40;;;;;;4991449;28;20507;-83
2022/08/13 11:55:51;;;;;;;1.40;1.30;;;37.00;31.00;;;;;;4996435;28;20057;-83
2022/08/13 11:58:18;;;;;;;2.42;1.58;;;37.10;31.00;;;;;;4991574;28;20045;-85
2022/08/13 12:00:45;;;;;;;2.35;1.60;;;37.10;30.80;;;;;;4995871;28;20514;-85
2022/08/13 12:03:11;;;;;;;1.73;1.58;;;37.10;30.00;;;;;;4990620;28;20037;-85
2022/08/13 12:05:37;;;;;;;2.15;1.52;;;36.90;30.20;;;;;;4994580;28;20041;-83
2022/08/13 12:08:13;;;;;;;1.50;1.40;;;36.50;30.00;;;;;;4991087;28;20416;-84
2022/08/13 12:10:42;;;;;;;1.50;1.40;;;36.60;29.70;;;;;;4992641;28;20087;-85
2022/08/13 12:13:08;;;;;;;2.08;1.50;;;36.40;29.90;;;;;;4995831;28;20285;-85
2022/08/13 12:15:34;;;;;;;1.90;1.30;;;36.40;30.00;;;;;;4997889;28;20037;-84
2022/08/13 12:18:00;;;;;;;2.05;1.50;;;36.50;30.80;;;;;;5013511;28;20116;-85
2022/08/13 12:20:27;;;;;;;2.13;1.63;;;36.80;30.30;;;;;;4998286;28;20116;-85
2022/08/13 12:22:57;;;;;;;1.77;1.30;;;36.40;29.90;;;;;;4991345;28;20128;-84
2022/08/13 12:25:26;;;;;;;1.52;1.42;;;36.00;29.70;;;;;;4995933;28;20033;-85
2022/08/13 12:28:17;;;;;;;1.80;1.70;;;35.80;30.00;;;;;;4993696;28;20584;-84
2022/08/13 12:30:45;;;;;;;1.73;1.40;;;35.90;30.60;;;;;;4984255;28;20053;-84
2022/08/13 12:33:11;;;;;;;2.08;1.50;;;36.50;31.50;;;;;;5012071;28;20120;-84
2022/08/13 12:35:40;;;;;;;1.70;1.60;;;36.90;30.80;;;;;;4994005;28;20179;-85
2022/08/13 12:38:15;;;;;;;1.75;1.60;;;37.20;31.10;;;;;;4995552;28;20041;-85
2022/08/13 12:40:42;;;;;;;2.25;1.85;;;37.80;30.40;;;;;;4995819;28;20112;-85
2022/08/13 12:43:08;;;;;;;3.83;1.70;;;38.00;30.50;;;;;;4997661;28;20036;-84
2022/08/13 12:45:35;;;;;;;3.05;1.60;;;38.50;31.00;;;;;;4997306;28;20049;-84
2022/08/13 12:48:09;;;;;;;2.50;1.85;;;38.80;31.20;;;;;;5014545;28;20042;-85
2022/08/13 12:50:36;;;;;;;3.22;1.90;;;38.70;29.60;;;;;;5014949;28;20496;-85
2022/08/13 12:53:02;;;;;;;2.70;1.90;;;37.90;30.00;;;;;;5010145;28;20033;-85
2022/08/13 12:55:28;;;;;;;3.63;1.80;;;36.70;30.60;;;;;;4990180;28;20088;-85
2022/08/13 12:57:55;;;;;;;1.95;1.85;;;36.60;31.80;;;;;;5007362;28;20065;-85
2022/08/13 13:00:22;;;;;;;1.70;1.60;;;36.50;32.00;;;;;;4994412;28;20088;-85
2022/08/13 13:02:48;;;;;;;2.58;2.10;;;36.80;30.70;;;;;;4990970;28;20045;-84
2022/08/13 13:05:15;;;;;;;2.10;1.90;;;36.90;30.60;;;;;;4993171;28;20047;-84
2022/08/13 13:07:42;;;;;;;3.40;2.13;;;37.30;30.60;;;;;;4990131;28;20037;-85
2022/08/13 13:10:09;;;;;;;1.90;1.80;;;37.80;31.10;;;;;;4992782;28;20048;-85
2022/08/13 13:12:36;;;;;;;3.13;1.70;;;38.50;29.90;;;;;;4991913;28;20095;-85
2022/08/13 13:15:02;;;;;;;1.90;1.80;;;38.20;29.10;;;;;;4988598;28;20504;-85
2022/08/13 13:17:29;;;;;;;1.60;1.50;;;38.20;29.70;;;;;;4995185;28;20071;-85
2022/08/13 13:19:55;;;;;;;2.00;1.80;;;38.60;28.70;;;;;;4992060;28;20049;-84
2022/08/13 13:22:21;;;;;;;3.47;1.80;;;39.10;28.20;;;;;;4998380;28;20058;-85
2022/08/13 13:24:46;;;;;;;2.60;1.88;;;39.40;28.10;;;;;;4988480;28;20553;-85
2022/08/13 13:27:12;;;;;;;2.47;1.90;;;39.10;28.50;;;;;;4991815;28;20068;-85
2022/08/13 13:29:39;;;;;;;4.45;1.90;;;38.90;28.80;;;;;;4994094;28;20033;-84